Ridgewood, Pennsylvania
Current Conditions -  °F | °C
As of 3:18 AM on Monday 26 Jan 2015 (Local Time) from KRDG Reporting Station
Light Snow Light Snow  
Wind Chill: 16°   Ceiling: 1400
Heat Index: 24°   Visibility: 2mi
Dew Point: 21°   Wind: 7mph
Humidity: 88%   Direction: 50°NE
Pressure: 29.93"   Gusts: NA
Location:  40.2313°N, 75.8555°W
Report Text: KRDG 260818Z 05006KT 2SM -SN BR SCT009 BKN014 OVC029 M04/M06 A2993 RMK AO2 P0000 T10441061
Loading
Personal Weather Stations






























Interactive Weather Map New forecast layout! Learn more

10-Day Weather Forecast

Advertisements
Track Severe Weather on mobile